sensor_id;sensor_type;location;lat;lon;timestamp;P1;durP1;ratioP1;P2;durP2;ratioP2
24373;SDS011;12498;50.880;12.096;2022-10-16T00:00:43;2.53;;;0.70;;
24373;SDS011;12498;50.880;12.096;2022-10-16T00:03:10;1.05;;;0.80;;
24373;SDS011;12498;50.880;12.096;2022-10-16T00:05:40;2.28;;;0.90;;
24373;SDS011;12498;50.880;12.096;2022-10-16T00:08:08;1.30;;;0.80;;
24373;SDS011;12498;50.880;12.096;2022-10-16T00:10:34;1.10;;;0.70;;
24373;SDS011;12498;50.880;12.096;2022-10-16T00:13:03;2.88;;;0.90;;
24373;SDS011;12498;50.880;12.096;2022-10-16T00:15:30;4.20;;;0.70;;
24373;SDS011;12498;50.880;12.096;2022-10-16T00:18:00;2.95;;;0.70;;
24373;SDS011;12498;50.880;12.096;2022-10-16T00:20:26;2.15;;;0.80;;
24373;SDS011;12498;50.880;12.096;2022-10-16T00:22:51;1.73;;;0.82;;
24373;SDS011;12498;50.880;12.096;2022-10-16T00:25:17;1.63;;;0.80;;
24373;SDS011;12498;50.880;12.096;2022-10-16T00:27:42;2.65;;;0.68;;
24373;SDS011;12498;50.880;12.096;2022-10-16T00:30:08;1.65;;;0.68;;
24373;SDS011;12498;50.880;12.096;2022-10-16T00:32:34;1.70;;;0.70;;
24373;SDS011;12498;50.880;12.096;2022-10-16T00:35:00;2.83;;;0.60;;
24373;SDS011;12498;50.880;12.096;2022-10-16T00:37:26;2.63;;;0.70;;
24373;SDS011;12498;50.880;12.096;2022-10-16T00:39:51;4.93;;;0.77;;
24373;SDS011;12498;50.880;12.096;2022-10-16T00:42:17;2.45;;;0.80;;
24373;SDS011;12498;50.880;12.096;2022-10-16T00:44:50;4.07;;;0.80;;
24373;SDS011;12498;50.880;12.096;2022-10-16T00:47:19;1.33;;;0.70;;
24373;SDS011;12498;50.880;12.096;2022-10-16T00:49:49;2.65;;;0.80;;
24373;SDS011;12498;50.880;12.096;2022-10-16T00:52:18;1.08;;;0.80;;
24373;SDS011;12498;50.880;12.096;2022-10-16T00:54:44;2.92;;;0.80;;
24373;SDS011;12498;50.880;12.096;2022-10-16T00:57:12;1.58;;;0.75;;
24373;SDS011;12498;50.880;12.096;2022-10-16T00:59:38;2.47;;;1.00;;
24373;SDS011;12498;50.880;12.096;2022-10-16T01:02:06;2.10;;;0.70;;
24373;SDS011;12498;50.880;12.096;2022-10-16T01:04:38;2.35;;;0.85;;
24373;SDS011;12498;50.880;12.096;2022-10-16T01:07:21;3.17;;;0.80;;
24373;SDS011;12498;50.880;12.096;2022-10-16T01:09:52;4.05;;;0.90;;
24373;SDS011;12498;50.880;12.096;2022-10-16T01:12:40;2.15;;;0.90;;
24373;SDS011;12498;50.880;12.096;2022-10-16T01:18:00;3.10;;;0.88;;
24373;SDS011;12498;50.880;12.096;2022-10-16T01:21:13;1.77;;;0.80;;
24373;SDS011;12498;50.880;12.096;2022-10-16T01:23:43;3.42;;;0.73;;
24373;SDS011;12498;50.880;12.096;2022-10-16T01:29:20;1.10;;;0.80;;
24373;SDS011;12498;50.880;12.096;2022-10-16T01:31:50;3.17;;;1.15;;
24373;SDS011;12498;50.880;12.096;2022-10-16T01:34:22;4.35;;;1.58;;
24373;SDS011;12498;50.880;12.096;2022-10-16T01:36:57;3.40;;;1.20;;
24373;SDS011;12498;50.880;12.096;2022-10-16T01:39:30;2.05;;;1.45;;
24373;SDS011;12498;50.880;12.096;2022-10-16T01:44:29;3.53;;;1.02;;
24373;SDS011;12498;50.880;12.096;2022-10-16T01:46:58;4.15;;;1.30;;
24373;SDS011;12498;50.880;12.096;2022-10-16T01:49:25;3.05;;;1.50;;
24373;SDS011;12498;50.880;12.096;2022-10-16T01:51:55;3.53;;;1.45;;
24373;SDS011;12498;50.880;12.096;2022-10-16T01:54:25;3.40;;;1.33;;
24373;SDS011;12498;50.880;12.096;2022-10-16T01:56:54;1.85;;;1.10;;
24373;SDS011;12498;50.880;12.096;2022-10-16T01:59:21;1.83;;;1.08;;
24373;SDS011;12498;50.880;12.096;2022-10-16T02:01:50;2.20;;;1.00;;
24373;SDS011;12498;50.880;12.096;2022-10-16T02:06:54;4.72;;;1.10;;
24373;SDS011;12498;50.880;12.096;2022-10-16T02:09:20;1.20;;;0.90;;
24373;SDS011;12498;50.880;12.096;2022-10-16T02:11:46;1.48;;;0.82;;
24373;SDS011;12498;50.880;12.096;2022-10-16T02:14:14;3.58;;;1.10;;
24373;SDS011;12498;50.880;12.096;2022-10-16T02:16:43;2.97;;;1.00;;
24373;SDS011;12498;50.880;12.096;2022-10-16T02:19:11;3.08;;;1.13;;
24373;SDS011;12498;50.880;12.096;2022-10-16T02:24:30;7.50;;;1.02;;
24373;SDS011;12498;50.880;12.096;2022-10-16T02:27:12;1.40;;;1.08;;
24373;SDS011;12498;50.880;12.096;2022-10-16T02:29:55;4.07;;;0.90;;
24373;SDS011;12498;50.880;12.096;2022-10-16T02:32:28;1.42;;;0.80;;
24373;SDS011;12498;50.880;12.096;2022-10-16T02:34:56;3.97;;;0.93;;
24373;SDS011;12498;50.880;12.096;2022-10-16T02:37:23;1.77;;;1.05;;
24373;SDS011;12498;50.880;12.096;2022-10-16T02:39:50;5.60;;;1.27;;
24373;SDS011;12498;50.880;12.096;2022-10-16T02:42:17;2.03;;;1.17;;
24373;SDS011;12498;50.880;12.096;2022-10-16T02:44:43;3.45;;;1.10;;
24373;SDS011;12498;50.880;12.096;2022-10-16T02:47:09;2.92;;;1.35;;
24373;SDS011;12498;50.880;12.096;2022-10-16T02:49:34;2.00;;;1.25;;
24373;SDS011;12498;50.880;12.096;2022-10-16T02:52:00;2.25;;;1.08;;
24373;SDS011;12498;50.880;12.096;2022-10-16T02:54:26;3.05;;;1.23;;
24373;SDS011;12498;50.880;12.096;2022-10-16T02:56:51;1.42;;;1.20;;
24373;SDS011;12498;50.880;12.096;2022-10-16T02:59:17;4.38;;;1.20;;
24373;SDS011;12498;50.880;12.096;2022-10-16T03:01:43;1.70;;;1.00;;
24373;SDS011;12498;50.880;12.096;2022-10-16T03:04:08;4.78;;;1.55;;
24373;SDS011;12498;50.880;12.096;2022-10-16T03:06:34;3.10;;;1.20;;
24373;SDS011;12498;50.880;12.096;2022-10-16T03:08:59;3.85;;;1.40;;
24373;SDS011;12498;50.880;12.096;2022-10-16T03:11:25;1.92;;;1.20;;
24373;SDS011;12498;50.880;12.096;2022-10-16T03:13:51;1.85;;;1.23;;
24373;SDS011;12498;50.880;12.096;2022-10-16T03:16:17;2.40;;;1.30;;
24373;SDS011;12498;50.880;12.096;2022-10-16T03:18:43;5.03;;;1.30;;
24373;SDS011;12498;50.880;12.096;2022-10-16T03:21:08;3.97;;;1.30;;
24373;SDS011;12498;50.880;12.096;2022-10-16T03:23:34;1.85;;;1.20;;
24373;SDS011;12498;50.880;12.096;2022-10-16T03:25:59;2.05;;;1.00;;
24373;SDS011;12498;50.880;12.096;2022-10-16T03:28:25;3.17;;;1.20;;
24373;SDS011;12498;50.880;12.096;2022-10-16T03:30:50;2.53;;;1.20;;
24373;SDS011;12498;50.880;12.096;2022-10-16T03:33:16;1.77;;;0.90;;
24373;SDS011;12498;50.880;12.096;2022-10-16T03:35:42;3.58;;;0.90;;
24373;SDS011;12498;50.880;12.096;2022-10-16T03:38:07;1.20;;;0.80;;
24373;SDS011;12498;50.880;12.096;2022-10-16T03:40:33;3.50;;;1.25;;
24373;SDS011;12498;50.880;12.096;2022-10-16T03:42:59;2.63;;;0.95;;
24373;SDS011;12498;50.880;12.096;2022-10-16T03:45:24;3.17;;;1.10;;
24373;SDS011;12498;50.880;12.096;2022-10-16T03:47:51;3.47;;;1.10;;
24373;SDS011;12498;50.880;12.096;2022-10-16T03:50:16;2.05;;;1.10;;
24373;SDS011;12498;50.880;12.096;2022-10-16T03:52:42;4.43;;;1.00;;
24373;SDS011;12498;50.880;12.096;2022-10-16T03:55:07;3.65;;;1.20;;
24373;SDS011;12498;50.880;12.096;2022-10-16T03:57:33;2.88;;;0.98;;
24373;SDS011;12498;50.880;12.096;2022-10-16T03:59:59;2.45;;;1.00;;
24373;SDS011;12498;50.880;12.096;2022-10-16T04:02:24;1.98;;;0.95;;
24373;SDS011;12498;50.880;12.096;2022-10-16T04:04:50;1.98;;;0.90;;
24373;SDS011;12498;50.880;12.096;2022-10-16T04:07:16;4.15;;;1.00;;
24373;SDS011;12498;50.880;12.096;2022-10-16T04:09:41;4.47;;;0.95;;
24373;SDS011;12498;50.880;12.096;2022-10-16T04:12:07;3.08;;;1.00;;
24373;SDS011;12498;50.880;12.096;2022-10-16T04:14:33;4.32;;;1.05;;
24373;SDS011;12498;50.880;12.096;2022-10-16T04:16:59;2.80;;;1.02;;
24373;SDS011;12498;50.880;12.096;2022-10-16T04:19:24;0.85;;;0.70;;
24373;SDS011;12498;50.880;12.096;2022-10-16T04:21:51;3.08;;;1.00;;
24373;SDS011;12498;50.880;12.096;2022-10-16T04:24:16;3.50;;;1.00;;
24373;SDS011;12498;50.880;12.096;2022-10-16T04:26:42;2.92;;;1.17;;
24373;SDS011;12498;50.880;12.096;2022-10-16T04:29:07;2.75;;;0.95;;
24373;SDS011;12498;50.880;12.096;2022-10-16T04:31:33;1.55;;;0.80;;
24373;SDS011;12498;50.880;12.096;2022-10-16T04:33:59;3.45;;;0.90;;
24373;SDS011;12498;50.880;12.096;2022-10-16T04:36:24;4.07;;;1.00;;
24373;SDS011;12498;50.880;12.096;2022-10-16T04:38:50;3.90;;;1.00;;
24373;SDS011;12498;50.880;12.096;2022-10-16T04:41:15;1.55;;;0.70;;
24373;SDS011;12498;50.880;12.096;2022-10-16T04:43:41;2.05;;;1.02;;
24373;SDS011;12498;50.880;12.096;2022-10-16T04:46:07;1.95;;;0.90;;
24373;SDS011;12498;50.880;12.096;2022-10-16T04:48:32;1.92;;;1.00;;
24373;SDS011;12498;50.880;12.096;2022-10-16T04:50:58;1.55;;;0.90;;
24373;SDS011;12498;50.880;12.096;2022-10-16T04:53:24;2.05;;;1.00;;
24373;SDS011;12498;50.880;12.096;2022-10-16T04:55:50;1.33;;;0.90;;
24373;SDS011;12498;50.880;12.096;2022-10-16T04:58:15;1.55;;;0.98;;
24373;SDS011;12498;50.880;12.096;2022-10-16T05:00:41;2.25;;;1.10;;
24373;SDS011;12498;50.880;12.096;2022-10-16T05:03:07;2.45;;;1.08;;
24373;SDS011;12498;50.880;12.096;2022-10-16T05:05:34;2.60;;;1.77;;
24373;SDS011;12498;50.880;12.096;2022-10-16T05:08:01;3.20;;;1.60;;
24373;SDS011;12498;50.880;12.096;2022-10-16T05:10:27;3.58;;;1.40;;
24373;SDS011;12498;50.880;12.096;2022-10-16T05:12:53;3.22;;;1.23;;
24373;SDS011;12498;50.880;12.096;2022-10-16T05:15:18;2.72;;;1.38;;
24373;SDS011;12498;50.880;12.096;2022-10-16T05:17:44;3.20;;;1.13;;
24373;SDS011;12498;50.880;12.096;2022-10-16T05:20:10;3.95;;;1.30;;
24373;SDS011;12498;50.880;12.096;2022-10-16T05:22:36;2.92;;;1.17;;
24373;SDS011;12498;50.880;12.096;2022-10-16T05:25:02;6.00;;;3.40;;
24373;SDS011;12498;50.880;12.096;2022-10-16T05:27:28;6.95;;;2.30;;
24373;SDS011;12498;50.880;12.096;2022-10-16T05:29:53;3.45;;;2.40;;
24373;SDS011;12498;50.880;12.096;2022-10-16T05:32:19;5.20;;;1.30;;
24373;SDS011;12498;50.880;12.096;2022-10-16T05:34:44;1.88;;;0.80;;
24373;SDS011;12498;50.880;12.096;2022-10-16T05:37:10;1.63;;;1.17;;
24373;SDS011;12498;50.880;12.096;2022-10-16T05:39:36;2.05;;;1.20;;
24373;SDS011;12498;50.880;12.096;2022-10-16T05:42:03;1.65;;;0.90;;
24373;SDS011;12498;50.880;12.096;2022-10-16T05:44:29;2.65;;;1.15;;
24373;SDS011;12498;50.880;12.096;2022-10-16T05:46:55;2.20;;;1.00;;
24373;SDS011;12498;50.880;12.096;2022-10-16T05:49:21;1.48;;;0.90;;
24373;SDS011;12498;50.880;12.096;2022-10-16T05:51:46;2.85;;;0.90;;
24373;SDS011;12498;50.880;12.096;2022-10-16T05:54:12;4.65;;;0.80;;
24373;SDS011;12498;50.880;12.096;2022-10-16T05:56:38;1.15;;;0.70;;
24373;SDS011;12498;50.880;12.096;2022-10-16T05:59:04;5.80;;;3.88;;
24373;SDS011;12498;50.880;12.096;2022-10-16T06:01:29;13.57;;;6.75;;
24373;SDS011;12498;50.880;12.096;2022-10-16T06:03:56;3.50;;;1.90;;
24373;SDS011;12498;50.880;12.096;2022-10-16T06:06:25;2.53;;;1.48;;
24373;SDS011;12498;50.880;12.096;2022-10-16T06:08:53;3.63;;;2.25;;
24373;SDS011;12498;50.880;12.096;2022-10-16T06:11:21;5.63;;;3.70;;
24373;SDS011;12498;50.880;12.096;2022-10-16T06:13:53;4.30;;;2.60;;
24373;SDS011;12498;50.880;12.096;2022-10-16T06:16:21;4.00;;;1.80;;
24373;SDS011;12498;50.880;12.096;2022-10-16T06:18:48;1.50;;;1.02;;
24373;SDS011;12498;50.880;12.096;2022-10-16T06:21:17;2.15;;;1.20;;
24373;SDS011;12498;50.880;12.096;2022-10-16T06:23:45;2.07;;;1.40;;
24373;SDS011;12498;50.880;12.096;2022-10-16T06:26:12;8.27;;;4.28;;
24373;SDS011;12498;50.880;12.096;2022-10-16T06:28:39;5.18;;;3.25;;
24373;SDS011;12498;50.880;12.096;2022-10-16T06:31:05;6.75;;;3.55;;
24373;SDS011;12498;50.880;12.096;2022-10-16T06:33:32;4.57;;;1.80;;
24373;SDS011;12498;50.880;12.096;2022-10-16T06:36:08;3.38;;;1.70;;
24373;SDS011;12498;50.880;12.096;2022-10-16T06:38:37;2.38;;;1.48;;
24373;SDS011;12498;50.880;12.096;2022-10-16T06:41:04;20.88;;;10.73;;
24373;SDS011;12498;50.880;12.096;2022-10-16T06:43:31;5.35;;;2.95;;
24373;SDS011;12498;50.880;12.096;2022-10-16T06:45:57;6.53;;;3.15;;
24373;SDS011;12498;50.880;12.096;2022-10-16T06:48:24;6.25;;;4.00;;
24373;SDS011;12498;50.880;12.096;2022-10-16T06:53:27;8.30;;;4.65;;
24373;SDS011;12498;50.880;12.096;2022-10-16T06:55:57;14.15;;;7.53;;
24373;SDS011;12498;50.880;12.096;2022-10-16T06:58:22;7.43;;;4.15;;
24373;SDS011;12498;50.880;12.096;2022-10-16T07:00:48;2.95;;;1.45;;
24373;SDS011;12498;50.880;12.096;2022-10-16T07:03:20;13.48;;;7.15;;
24373;SDS011;12498;50.880;12.096;2022-10-16T07:05:46;20.05;;;12.57;;
24373;SDS011;12498;50.880;12.096;2022-10-16T07:08:11;26.77;;;11.90;;
24373;SDS011;12498;50.880;12.096;2022-10-16T07:10:37;38.00;;;16.40;;
24373;SDS011;12498;50.880;12.096;2022-10-16T07:13:03;63.42;;;28.33;;
24373;SDS011;12498;50.880;12.096;2022-10-16T07:15:29;34.38;;;16.77;;
24373;SDS011;12498;50.880;12.096;2022-10-16T07:17:54;30.90;;;15.88;;
24373;SDS011;12498;50.880;12.096;2022-10-16T07:20:20;38.78;;;18.48;;
24373;SDS011;12498;50.880;12.096;2022-10-16T07:22:46;12.27;;;6.68;;
24373;SDS011;12498;50.880;12.096;2022-10-16T07:25:11;25.55;;;13.43;;
24373;SDS011;12498;50.880;12.096;2022-10-16T07:27:37;35.00;;;13.70;;
24373;SDS011;12498;50.880;12.096;2022-10-16T07:30:03;34.47;;;16.55;;
24373;SDS011;12498;50.880;12.096;2022-10-16T07:32:29;16.88;;;8.85;;
24373;SDS011;12498;50.880;12.096;2022-10-16T07:34:56;19.83;;;11.50;;
24373;SDS011;12498;50.880;12.096;2022-10-16T07:37:22;16.50;;;6.95;;
24373;SDS011;12498;50.880;12.096;2022-10-16T07:39:47;3.60;;;2.17;;
24373;SDS011;12498;50.880;12.096;2022-10-16T07:42:13;13.90;;;6.47;;
24373;SDS011;12498;50.880;12.096;2022-10-16T07:44:39;11.77;;;5.88;;
24373;SDS011;12498;50.880;12.096;2022-10-16T07:47:06;13.98;;;8.35;;
24373;SDS011;12498;50.880;12.096;2022-10-16T07:49:32;10.55;;;4.38;;
24373;SDS011;12498;50.880;12.096;2022-10-16T07:51:57;23.88;;;11.45;;
24373;SDS011;12498;50.880;12.096;2022-10-16T07:54:23;17.50;;;8.90;;
24373;SDS011;12498;50.880;12.096;2022-10-16T07:56:48;14.00;;;5.78;;
24373;SDS011;12498;50.880;12.096;2022-10-16T07:59:14;9.02;;;4.90;;
24373;SDS011;12498;50.880;12.096;2022-10-16T08:01:39;12.63;;;5.97;;
24373;SDS011;12498;50.880;12.096;2022-10-16T08:04:07;16.65;;;6.55;;
24373;SDS011;12498;50.880;12.096;2022-10-16T08:06:36;5.85;;;3.00;;
24373;SDS011;12498;50.880;12.096;2022-10-16T08:09:03;10.15;;;4.93;;
24373;SDS011;12498;50.880;12.096;2022-10-16T08:11:30;15.82;;;6.97;;
24373;SDS011;12498;50.880;12.096;2022-10-16T08:13:56;12.13;;;5.60;;
24373;SDS011;12498;50.880;12.096;2022-10-16T08:16:21;5.00;;;2.70;;
24373;SDS011;12498;50.880;12.096;2022-10-16T08:18:47;6.47;;;3.03;;
24373;SDS011;12498;50.880;12.096;2022-10-16T08:21:16;9.05;;;3.33;;
24373;SDS011;12498;50.880;12.096;2022-10-16T08:23:44;2.63;;;1.80;;
24373;SDS011;12498;50.880;12.096;2022-10-16T08:26:11;4.15;;;2.08;;
24373;SDS011;12498;50.880;12.096;2022-10-16T08:28:37;13.73;;;4.10;;
24373;SDS011;12498;50.880;12.096;2022-10-16T08:31:10;9.13;;;4.30;;
24373;SDS011;12498;50.880;12.096;2022-10-16T08:33:38;7.38;;;2.38;;
24373;SDS011;12498;50.880;12.096;2022-10-16T08:36:06;9.13;;;4.40;;
24373;SDS011;12498;50.880;12.096;2022-10-16T08:38:33;11.75;;;3.80;;
24373;SDS011;12498;50.880;12.096;2022-10-16T08:41:15;7.68;;;3.78;;
24373;SDS011;12498;50.880;12.096;2022-10-16T08:46:36;10.13;;;3.00;;
24373;SDS011;12498;50.880;12.096;2022-10-16T08:49:13;11.85;;;5.40;;
24373;SDS011;12498;50.880;12.096;2022-10-16T08:51:39;3.80;;;2.33;;
24373;SDS011;12498;50.880;12.096;2022-10-16T08:54:10;6.07;;;3.72;;
24373;SDS011;12498;50.880;12.096;2022-10-16T08:56:38;6.25;;;2.55;;
24373;SDS011;12498;50.880;12.096;2022-10-16T08:59:03;3.60;;;2.30;;
24373;SDS011;12498;50.880;12.096;2022-10-16T09:01:38;2.80;;;2.08;;
24373;SDS011;12498;50.880;12.096;2022-10-16T09:04:20;4.93;;;2.22;;
24373;SDS011;12498;50.880;12.096;2022-10-16T09:06:59;4.97;;;2.70;;
24373;SDS011;12498;50.880;12.096;2022-10-16T09:15:19;5.40;;;2.70;;
24373;SDS011;12498;50.880;12.096;2022-10-16T09:17:56;5.45;;;3.13;;
24373;SDS011;12498;50.880;12.096;2022-10-16T09:25:54;6.15;;;2.15;;
24373;SDS011;12498;50.880;12.096;2022-10-16T09:28:22;10.20;;;2.08;;
24373;SDS011;12498;50.880;12.096;2022-10-16T09:30:48;3.20;;;1.70;;
24373;SDS011;12498;50.880;12.096;2022-10-16T09:33:14;3.13;;;1.80;;
24373;SDS011;12498;50.880;12.096;2022-10-16T09:35:43;2.72;;;1.77;;
24373;SDS011;12498;50.880;12.096;2022-10-16T09:38:24;4.60;;;1.67;;
24373;SDS011;12498;50.880;12.096;2022-10-16T09:40:54;4.13;;;1.83;;
24373;SDS011;12498;50.880;12.096;2022-10-16T09:43:25;6.65;;;4.07;;
24373;SDS011;12498;50.880;12.096;2022-10-16T09:46:02;4.95;;;2.33;;
24373;SDS011;12498;50.880;12.096;2022-10-16T09:51:03;5.45;;;3.70;;
24373;SDS011;12498;50.880;12.096;2022-10-16T09:53:38;5.03;;;2.50;;
24373;SDS011;12498;50.880;12.096;2022-10-16T09:56:20;5.05;;;2.47;;
24373;SDS011;12498;50.880;12.096;2022-10-16T09:58:51;3.70;;;2.00;;
24373;SDS011;12498;50.880;12.096;2022-10-16T10:01:18;4.45;;;2.10;;
24373;SDS011;12498;50.880;12.096;2022-10-16T10:03:45;4.90;;;2.15;;
24373;SDS011;12498;50.880;12.096;2022-10-16T10:06:25;2.70;;;1.80;;
24373;SDS011;12498;50.880;12.096;2022-10-16T10:11:39;4.03;;;2.67;;
24373;SDS011;12498;50.880;12.096;2022-10-16T10:14:20;5.15;;;2.65;;
24373;SDS011;12498;50.880;12.096;2022-10-16T10:17:13;2.47;;;1.73;;
24373;SDS011;12498;50.880;12.096;2022-10-16T10:19:56;6.55;;;2.83;;
24373;SDS011;12498;50.880;12.096;2022-10-16T10:44:51;4.78;;;1.80;;
24373;SDS011;12498;50.880;12.096;2022-10-16T10:58:34;6.47;;;2.10;;
24373;SDS011;12498;50.880;12.096;2022-10-16T11:06:59;4.38;;;1.60;;
24373;SDS011;12498;50.880;12.096;2022-10-16T11:09:32;2.58;;;1.80;;
24373;SDS011;12498;50.880;12.096;2022-10-16T11:12:21;4.10;;;3.28;;
24373;SDS011;12498;50.880;12.096;2022-10-16T11:22:56;7.03;;;2.97;;
24373;SDS011;12498;50.880;12.096;2022-10-16T11:25:27;2.75;;;1.60;;
24373;SDS011;12498;50.880;12.096;2022-10-16T11:27:55;2.72;;;1.30;;
24373;SDS011;12498;50.880;12.096;2022-10-16T11:30:30;7.15;;;2.20;;
24373;SDS011;12498;50.880;12.096;2022-10-16T11:38:15;3.55;;;1.50;;
24373;SDS011;12498;50.880;12.096;2022-10-16T11:41:03;1.85;;;1.13;;
24373;SDS011;12498;50.880;12.096;2022-10-16T11:43:46;2.15;;;1.40;;
24373;SDS011;12498;50.880;12.096;2022-10-16T11:46:30;2.80;;;1.20;;
24373;SDS011;12498;50.880;12.096;2022-10-16T11:51:38;2.40;;;1.10;;
24373;SDS011;12498;50.880;12.096;2022-10-16T12:00:22;2.28;;;1.38;;
24373;SDS011;12498;50.880;12.096;2022-10-16T12:05:35;3.20;;;2.10;;
24373;SDS011;12498;50.880;12.096;2022-10-16T12:08:24;3.42;;;1.98;;
24373;SDS011;12498;50.880;12.096;2022-10-16T12:10:50;2.40;;;1.50;;
24373;SDS011;12498;50.880;12.096;2022-10-16T12:18:39;1.83;;;1.20;;
24373;SDS011;12498;50.880;12.096;2022-10-16T12:21:07;2.55;;;1.30;;
24373;SDS011;12498;50.880;12.096;2022-10-16T12:23:37;3.20;;;2.10;;
24373;SDS011;12498;50.880;12.096;2022-10-16T12:26:31;2.10;;;1.30;;
24373;SDS011;12498;50.880;12.096;2022-10-16T12:29:14;4.68;;;1.50;;
24373;SDS011;12498;50.880;12.096;2022-10-16T12:31:53;3.47;;;1.67;;
24373;SDS011;12498;50.880;12.096;2022-10-16T12:34:29;4.72;;;2.80;;
24373;SDS011;12498;50.880;12.096;2022-10-16T12:37:10;3.78;;;1.70;;
24373;SDS011;12498;50.880;12.096;2022-10-16T12:39:43;11.82;;;7.95;;
24373;SDS011;12498;50.880;12.096;2022-10-16T12:44:55;11.40;;;7.32;;
24373;SDS011;12498;50.880;12.096;2022-10-16T12:49:51;3.08;;;1.10;;
24373;SDS011;12498;50.880;12.096;2022-10-16T12:52:26;2.40;;;1.00;;
24373;SDS011;12498;50.880;12.096;2022-10-16T12:54:57;2.15;;;1.00;;
24373;SDS011;12498;50.880;12.096;2022-10-16T13:08:29;0.90;;;0.70;;
24373;SDS011;12498;50.880;12.096;2022-10-16T13:11:09;1.50;;;0.80;;
24373;SDS011;12498;50.880;12.096;2022-10-16T13:13:53;1.35;;;0.80;;
24373;SDS011;12498;50.880;12.096;2022-10-16T13:22:32;1.73;;;0.90;;
24373;SDS011;12498;50.880;12.096;2022-10-16T13:28:08;1.80;;;1.00;;
24373;SDS011;12498;50.880;12.096;2022-10-16T13:30:42;2.80;;;1.40;;
24373;SDS011;12498;50.880;12.096;2022-10-16T13:35:35;6.07;;;1.52;;
24373;SDS011;12498;50.880;12.096;2022-10-16T13:38:15;4.35;;;1.38;;
24373;SDS011;12498;50.880;12.096;2022-10-16T13:43:32;7.47;;;5.25;;
24373;SDS011;12498;50.880;12.096;2022-10-16T13:46:10;2.55;;;1.27;;
24373;SDS011;12498;50.880;12.096;2022-10-16T13:48:39;2.90;;;1.40;;
24373;SDS011;12498;50.880;12.096;2022-10-16T13:53:38;5.32;;;1.40;;
24373;SDS011;12498;50.880;12.096;2022-10-16T13:56:06;4.00;;;1.20;;
24373;SDS011;12498;50.880;12.096;2022-10-16T13:58:35;4.70;;;1.40;;
24373;SDS011;12498;50.880;12.096;2022-10-16T14:01:02;1.50;;;1.10;;
24373;SDS011;12498;50.880;12.096;2022-10-16T14:03:30;2.22;;;1.23;;
24373;SDS011;12498;50.880;12.096;2022-10-16T14:06:00;0.90;;;0.70;;
24373;SDS011;12498;50.880;12.096;2022-10-16T14:08:28;2.55;;;0.70;;
24373;SDS011;12498;50.880;12.096;2022-10-16T14:10:56;1.05;;;0.80;;
24373;SDS011;12498;50.880;12.096;2022-10-16T14:13:29;1.30;;;0.60;;
24373;SDS011;12498;50.880;12.096;2022-10-16T14:15:59;1.67;;;0.90;;
24373;SDS011;12498;50.880;12.096;2022-10-16T14:18:31;2.33;;;0.88;;
24373;SDS011;12498;50.880;12.096;2022-10-16T14:21:02;3.63;;;0.85;;
24373;SDS011;12498;50.880;12.096;2022-10-16T14:23:30;2.05;;;0.90;;
24373;SDS011;12498;50.880;12.096;2022-10-16T14:26:06;0.88;;;0.65;;
24373;SDS011;12498;50.880;12.096;2022-10-16T14:28:35;1.17;;;0.80;;
24373;SDS011;12498;50.880;12.096;2022-10-16T14:31:02;3.70;;;1.85;;
24373;SDS011;12498;50.880;12.096;2022-10-16T14:33:46;3.67;;;2.10;;
24373;SDS011;12498;50.880;12.096;2022-10-16T14:36:13;3.95;;;2.47;;
24373;SDS011;12498;50.880;12.096;2022-10-16T14:41:08;1.60;;;1.10;;
24373;SDS011;12498;50.880;12.096;2022-10-16T14:43:41;2.22;;;1.00;;
24373;SDS011;12498;50.880;12.096;2022-10-16T14:46:17;1.27;;;0.93;;
24373;SDS011;12498;50.880;12.096;2022-10-16T14:48:48;2.55;;;1.35;;
24373;SDS011;12498;50.880;12.096;2022-10-16T14:51:16;7.20;;;4.63;;
24373;SDS011;12498;50.880;12.096;2022-10-16T14:53:42;3.92;;;2.15;;
24373;SDS011;12498;50.880;12.096;2022-10-16T14:56:08;4.68;;;2.10;;
24373;SDS011;12498;50.880;12.096;2022-10-16T14:58:42;7.15;;;2.58;;
24373;SDS011;12498;50.880;12.096;2022-10-16T15:01:09;2.60;;;1.50;;
24373;SDS011;12498;50.880;12.096;2022-10-16T15:03:36;2.95;;;2.00;;
24373;SDS011;12498;50.880;12.096;2022-10-16T15:06:11;2.60;;;1.88;;
24373;SDS011;12498;50.880;12.096;2022-10-16T15:08:38;2.65;;;2.17;;
24373;SDS011;12498;50.880;12.096;2022-10-16T15:11:04;2.55;;;2.00;;
24373;SDS011;12498;50.880;12.096;2022-10-16T15:13:35;4.35;;;2.30;;
24373;SDS011;12498;50.880;12.096;2022-10-16T15:16:00;3.00;;;1.80;;
24373;SDS011;12498;50.880;12.096;2022-10-16T15:18:26;2.95;;;1.65;;
24373;SDS011;12498;50.880;12.096;2022-10-16T15:20:52;5.85;;;3.92;;
24373;SDS011;12498;50.880;12.096;2022-10-16T15:23:23;3.90;;;2.47;;
24373;SDS011;12498;50.880;12.096;2022-10-16T15:25:52;5.45;;;2.80;;
24373;SDS011;12498;50.880;12.096;2022-10-16T15:28:19;22.88;;;16.05;;
24373;SDS011;12498;50.880;12.096;2022-10-16T15:30:46;8.75;;;5.30;;
24373;SDS011;12498;50.880;12.096;2022-10-16T15:33:16;4.72;;;3.20;;
24373;SDS011;12498;50.880;12.096;2022-10-16T15:35:47;4.30;;;2.15;;
24373;SDS011;12498;50.880;12.096;2022-10-16T15:38:14;2.90;;;1.70;;
24373;SDS011;12498;50.880;12.096;2022-10-16T15:40:40;7.05;;;2.30;;
24373;SDS011;12498;50.880;12.096;2022-10-16T15:43:07;7.00;;;4.43;;
24373;SDS011;12498;50.880;12.096;2022-10-16T15:45:33;5.28;;;2.20;;
24373;SDS011;12498;50.880;12.096;2022-10-16T15:47:59;8.73;;;1.83;;
24373;SDS011;12498;50.880;12.096;2022-10-16T15:50:25;3.22;;;1.58;;
24373;SDS011;12498;50.880;12.096;2022-10-16T15:52:51;2.15;;;1.50;;
24373;SDS011;12498;50.880;12.096;2022-10-16T15:55:17;8.60;;;5.13;;
24373;SDS011;12498;50.880;12.096;2022-10-16T15:57:44;6.00;;;2.58;;
24373;SDS011;12498;50.880;12.096;2022-10-16T16:00:12;9.07;;;6.13;;
24373;SDS011;12498;50.880;12.096;2022-10-16T16:02:40;13.00;;;7.68;;
24373;SDS011;12498;50.880;12.096;2022-10-16T16:05:07;16.05;;;11.95;;
24373;SDS011;12498;50.880;12.096;2022-10-16T16:07:34;9.63;;;6.95;;
24373;SDS011;12498;50.880;12.096;2022-10-16T16:10:04;7.93;;;6.10;;
24373;SDS011;12498;50.880;12.096;2022-10-16T16:12:32;8.57;;;4.90;;
24373;SDS011;12498;50.880;12.096;2022-10-16T16:14:58;5.10;;;3.35;;
24373;SDS011;12498;50.880;12.096;2022-10-16T16:17:23;2.88;;;2.10;;
24373;SDS011;12498;50.880;12.096;2022-10-16T16:19:49;10.85;;;2.90;;
24373;SDS011;12498;50.880;12.096;2022-10-16T16:22:15;6.05;;;2.63;;
24373;SDS011;12498;50.880;12.096;2022-10-16T16:24:41;2.65;;;2.22;;
24373;SDS011;12498;50.880;12.096;2022-10-16T16:27:06;3.35;;;1.90;;
24373;SDS011;12498;50.880;12.096;2022-10-16T16:29:32;3.83;;;2.20;;
24373;SDS011;12498;50.880;12.096;2022-10-16T16:31:58;9.75;;;2.47;;
24373;SDS011;12498;50.880;12.096;2022-10-16T16:34:25;5.40;;;2.75;;
24373;SDS011;12498;50.880;12.096;2022-10-16T16:36:52;6.45;;;2.60;;
24373;SDS011;12498;50.880;12.096;2022-10-16T16:39:18;3.00;;;1.70;;
24373;SDS011;12498;50.880;12.096;2022-10-16T16:41:43;18.50;;;8.55;;
24373;SDS011;12498;50.880;12.096;2022-10-16T16:44:10;9.27;;;5.13;;
24373;SDS011;12498;50.880;12.096;2022-10-16T16:46:37;13.55;;;5.05;;
24373;SDS011;12498;50.880;12.096;2022-10-16T16:49:04;35.28;;;6.03;;
24373;SDS011;12498;50.880;12.096;2022-10-16T16:51:31;10.02;;;3.53;;
24373;SDS011;12498;50.880;12.096;2022-10-16T16:53:57;20.67;;;6.30;;
24373;SDS011;12498;50.880;12.096;2022-10-16T16:56:23;16.42;;;6.07;;
24373;SDS011;12498;50.880;12.096;2022-10-16T16:58:49;12.60;;;6.40;;
24373;SDS011;12498;50.880;12.096;2022-10-16T17:01:16;8.23;;;3.20;;
24373;SDS011;12498;50.880;12.096;2022-10-16T17:03:43;9.25;;;4.50;;